sensor_id;sensor_type;location;lat;lon;timestamp;P1;durP1;ratioP1;P2;durP2;ratioP2
73672;SDS011;61972;19.480;-99.240;2022-11-09T00:02:24;9.10;;;3.60;;
73672;SDS011;61972;19.480;-99.240;2022-11-09T00:04:50;5.50;;;3.15;;
73672;SDS011;61972;19.480;-99.240;2022-11-09T00:07:16;8.10;;;3.30;;
73672;SDS011;61972;19.480;-99.240;2022-11-09T00:09:42;11.13;;;3.38;;
73672;SDS011;61972;19.480;-99.240;2022-11-09T00:12:08;10.27;;;2.92;;
73672;SDS011;61972;19.480;-99.240;2022-11-09T00:14:34;12.10;;;3.17;;
73672;SDS011;61972;19.480;-99.240;2022-11-09T00:17:01;7.85;;;3.13;;
73672;SDS011;61972;19.480;-99.240;2022-11-09T00:19:27;6.90;;;3.13;;
73672;SDS011;61972;19.480;-99.240;2022-11-09T00:21:53;10.60;;;3.40;;
73672;SDS011;61972;19.480;-99.240;2022-11-09T00:24:19;7.97;;;3.30;;
73672;SDS011;61972;19.480;-99.240;2022-11-09T00:26:45;8.65;;;3.35;;
73672;SDS011;61972;19.480;-99.240;2022-11-09T00:29:12;8.40;;;3.60;;
73672;SDS011;61972;19.480;-99.240;2022-11-09T00:31:38;8.83;;;3.23;;
73672;SDS011;61972;19.480;-99.240;2022-11-09T00:34:04;7.72;;;3.38;;
73672;SDS011;61972;19.480;-99.240;2022-11-09T00:36:30;7.45;;;3.67;;
73672;SDS011;61972;19.480;-99.240;2022-11-09T00:38:58;10.25;;;3.50;;
73672;SDS011;61972;19.480;-99.240;2022-11-09T00:41:25;9.90;;;3.60;;
73672;SDS011;61972;19.480;-99.240;2022-11-09T00:43:52;17.57;;;4.10;;
73672;SDS011;61972;19.480;-99.240;2022-11-09T00:46:18;9.73;;;3.97;;
73672;SDS011;61972;19.480;-99.240;2022-11-09T00:48:45;10.20;;;3.63;;
73672;SDS011;61972;19.480;-99.240;2022-11-09T00:51:11;10.23;;;3.92;;
73672;SDS011;61972;19.480;-99.240;2022-11-09T00:53:38;11.02;;;4.13;;
73672;SDS011;61972;19.480;-99.240;2022-11-09T00:56:07;13.43;;;4.70;;
73672;SDS011;61972;19.480;-99.240;2022-11-09T00:58:36;11.50;;;4.20;;
73672;SDS011;61972;19.480;-99.240;2022-11-09T01:01:15;13.32;;;4.50;;
73672;SDS011;61972;19.480;-99.240;2022-11-09T01:03:42;12.73;;;4.07;;
73672;SDS011;61972;19.480;-99.240;2022-11-09T01:06:17;19.45;;;4.82;;
73672;SDS011;61972;19.480;-99.240;2022-11-09T01:08:46;15.10;;;4.37;;
73672;SDS011;61972;19.480;-99.240;2022-11-09T01:11:13;15.27;;;4.30;;
73672;SDS011;61972;19.480;-99.240;2022-11-09T01:13:40;9.00;;;4.30;;
73672;SDS011;61972;19.480;-99.240;2022-11-09T01:16:11;10.98;;;4.20;;
73672;SDS011;61972;19.480;-99.240;2022-11-09T01:18:39;12.25;;;4.18;;
73672;SDS011;61972;19.480;-99.240;2022-11-09T01:21:06;16.53;;;4.63;;
73672;SDS011;61972;19.480;-99.240;2022-11-09T01:23:35;10.35;;;4.63;;
73672;SDS011;61972;19.480;-99.240;2022-11-09T01:26:03;11.32;;;4.10;;
73672;SDS011;61972;19.480;-99.240;2022-11-09T01:28:31;14.77;;;4.30;;
73672;SDS011;61972;19.480;-99.240;2022-11-09T01:31:04;13.52;;;4.50;;
73672;SDS011;61972;19.480;-99.240;2022-11-09T01:33:33;14.60;;;4.47;;
73672;SDS011;61972;19.480;-99.240;2022-11-09T01:36:00;11.45;;;4.60;;
73672;SDS011;61972;19.480;-99.240;2022-11-09T01:38:28;12.77;;;4.68;;
73672;SDS011;61972;19.480;-99.240;2022-11-09T01:40:54;12.80;;;4.68;;
73672;SDS011;61972;19.480;-99.240;2022-11-09T01:43:21;8.82;;;4.35;;
73672;SDS011;61972;19.480;-99.240;2022-11-09T01:46:34;11.53;;;4.50;;
73672;SDS011;61972;19.480;-99.240;2022-11-09T01:48:42;12.20;;;4.63;;
73672;SDS011;61972;19.480;-99.240;2022-11-09T01:51:28;13.73;;;5.30;;
73672;SDS011;61972;19.480;-99.240;2022-11-09T01:54:03;16.13;;;4.80;;
73672;SDS011;61972;19.480;-99.240;2022-11-09T01:56:34;17.95;;;4.50;;
73672;SDS011;61972;19.480;-99.240;2022-11-09T01:59:07;12.13;;;4.57;;
73672;SDS011;61972;19.480;-99.240;2022-11-09T02:01:38;10.88;;;4.18;;
73672;SDS011;61972;19.480;-99.240;2022-11-09T02:04:07;11.32;;;3.95;;
73672;SDS011;61972;19.480;-99.240;2022-11-09T02:06:43;10.70;;;4.38;;
73672;SDS011;61972;19.480;-99.240;2022-11-09T02:09:11;14.57;;;4.22;;
73672;SDS011;61972;19.480;-99.240;2022-11-09T02:11:41;9.03;;;4.10;;
73672;SDS011;61972;19.480;-99.240;2022-11-09T02:14:07;12.10;;;4.00;;
73672;SDS011;61972;19.480;-99.240;2022-11-09T02:16:34;10.20;;;4.50;;
73672;SDS011;61972;19.480;-99.240;2022-11-09T02:19:01;12.27;;;4.63;;
73672;SDS011;61972;19.480;-99.240;2022-11-09T02:21:28;6.38;;;4.03;;
73672;SDS011;61972;19.480;-99.240;2022-11-09T02:23:56;9.20;;;4.30;;
73672;SDS011;61972;19.480;-99.240;2022-11-09T02:26:23;11.73;;;4.28;;
73672;SDS011;61972;19.480;-99.240;2022-11-09T02:28:51;9.73;;;4.40;;
73672;SDS011;61972;19.480;-99.240;2022-11-09T02:31:19;9.70;;;4.68;;
73672;SDS011;61972;19.480;-99.240;2022-11-09T02:36:16;10.53;;;3.97;;
73672;SDS011;61972;19.480;-99.240;2022-11-09T02:38:42;13.45;;;4.25;;
73672;SDS011;61972;19.480;-99.240;2022-11-09T02:41:08;9.43;;;3.88;;
73672;SDS011;61972;19.480;-99.240;2022-11-09T02:43:40;10.45;;;4.75;;
73672;SDS011;61972;19.480;-99.240;2022-11-09T02:46:06;8.70;;;4.55;;
73672;SDS011;61972;19.480;-99.240;2022-11-09T02:48:32;14.10;;;4.80;;
73672;SDS011;61972;19.480;-99.240;2022-11-09T02:50:58;9.52;;;3.95;;
73672;SDS011;61972;19.480;-99.240;2022-11-09T02:53:25;12.63;;;4.60;;
73672;SDS011;61972;19.480;-99.240;2022-11-09T02:55:51;9.45;;;3.92;;
73672;SDS011;61972;19.480;-99.240;2022-11-09T02:58:17;9.07;;;3.95;;
73672;SDS011;61972;19.480;-99.240;2022-11-09T03:00:43;13.90;;;4.87;;
73672;SDS011;61972;19.480;-99.240;2022-11-09T03:03:09;10.27;;;4.40;;
73672;SDS011;61972;19.480;-99.240;2022-11-09T03:05:36;11.68;;;4.53;;
73672;SDS011;61972;19.480;-99.240;2022-11-09T03:08:02;13.30;;;4.88;;
73672;SDS011;61972;19.480;-99.240;2022-11-09T03:10:28;10.48;;;3.92;;
73672;SDS011;61972;19.480;-99.240;2022-11-09T03:12:54;10.23;;;4.57;;
73672;SDS011;61972;19.480;-99.240;2022-11-09T03:15:20;9.40;;;4.20;;
73672;SDS011;61972;19.480;-99.240;2022-11-09T03:17:46;7.68;;;4.10;;
73672;SDS011;61972;19.480;-99.240;2022-11-09T03:20:12;11.80;;;4.18;;
73672;SDS011;61972;19.480;-99.240;2022-11-09T03:22:38;9.85;;;4.18;;
73672;SDS011;61972;19.480;-99.240;2022-11-09T03:25:05;13.43;;;4.30;;
73672;SDS011;61972;19.480;-99.240;2022-11-09T03:27:31;10.25;;;4.03;;
73672;SDS011;61972;19.480;-99.240;2022-11-09T03:29:57;10.20;;;4.20;;
73672;SDS011;61972;19.480;-99.240;2022-11-09T03:32:23;10.40;;;4.60;;
73672;SDS011;61972;19.480;-99.240;2022-11-09T03:34:49;10.88;;;4.22;;
73672;SDS011;61972;19.480;-99.240;2022-11-09T03:37:16;13.50;;;4.37;;
73672;SDS011;61972;19.480;-99.240;2022-11-09T03:39:42;11.35;;;4.30;;
73672;SDS011;61972;19.480;-99.240;2022-11-09T03:42:08;9.75;;;3.90;;
73672;SDS011;61972;19.480;-99.240;2022-11-09T03:44:35;9.25;;;4.10;;
73672;SDS011;61972;19.480;-99.240;2022-11-09T03:47:01;10.75;;;4.22;;
73672;SDS011;61972;19.480;-99.240;2022-11-09T03:49:27;10.40;;;4.20;;
73672;SDS011;61972;19.480;-99.240;2022-11-09T03:51:53;10.77;;;3.95;;
73672;SDS011;61972;19.480;-99.240;2022-11-09T03:54:19;8.68;;;4.00;;
73672;SDS011;61972;19.480;-99.240;2022-11-09T03:56:45;8.38;;;3.85;;
73672;SDS011;61972;19.480;-99.240;2022-11-09T03:59:11;12.27;;;3.47;;
73672;SDS011;61972;19.480;-99.240;2022-11-09T04:01:37;10.53;;;3.90;;
73672;SDS011;61972;19.480;-99.240;2022-11-09T04:04:03;8.70;;;3.70;;
73672;SDS011;61972;19.480;-99.240;2022-11-09T04:06:29;9.88;;;4.20;;
73672;SDS011;61972;19.480;-99.240;2022-11-09T04:08:55;10.38;;;3.22;;
73672;SDS011;61972;19.480;-99.240;2022-11-09T04:11:22;10.60;;;3.40;;
73672;SDS011;61972;19.480;-99.240;2022-11-09T04:13:48;7.43;;;3.13;;
73672;SDS011;61972;19.480;-99.240;2022-11-09T04:16:14;9.52;;;3.30;;
73672;SDS011;61972;19.480;-99.240;2022-11-09T04:18:40;7.13;;;3.53;;
73672;SDS011;61972;19.480;-99.240;2022-11-09T04:21:06;9.00;;;3.30;;
73672;SDS011;61972;19.480;-99.240;2022-11-09T04:23:33;7.68;;;3.33;;
73672;SDS011;61972;19.480;-99.240;2022-11-09T04:25:59;5.33;;;3.07;;
73672;SDS011;61972;19.480;-99.240;2022-11-09T04:28:25;8.27;;;3.30;;
73672;SDS011;61972;19.480;-99.240;2022-11-09T04:30:51;5.93;;;3.28;;
73672;SDS011;61972;19.480;-99.240;2022-11-09T04:33:17;8.95;;;3.53;;
73672;SDS011;61972;19.480;-99.240;2022-11-09T04:35:43;9.57;;;3.60;;
73672;SDS011;61972;19.480;-99.240;2022-11-09T04:38:11;8.23;;;3.50;;
73672;SDS011;61972;19.480;-99.240;2022-11-09T04:40:38;8.18;;;3.60;;
73672;SDS011;61972;19.480;-99.240;2022-11-09T04:43:05;5.65;;;2.88;;
73672;SDS011;61972;19.480;-99.240;2022-11-09T04:45:33;6.25;;;3.65;;
73672;SDS011;61972;19.480;-99.240;2022-11-09T04:48:02;7.57;;;3.45;;
73672;SDS011;61972;19.480;-99.240;2022-11-09T04:50:30;13.43;;;2.90;;
73672;SDS011;61972;19.480;-99.240;2022-11-09T04:53:07;5.20;;;3.20;;
73672;SDS011;61972;19.480;-99.240;2022-11-09T04:55:36;6.25;;;3.13;;
73672;SDS011;61972;19.480;-99.240;2022-11-09T04:58:03;8.32;;;3.30;;
73672;SDS011;61972;19.480;-99.240;2022-11-09T05:00:29;7.95;;;3.20;;
73672;SDS011;61972;19.480;-99.240;2022-11-09T05:03:02;6.60;;;2.80;;
73672;SDS011;61972;19.480;-99.240;2022-11-09T05:05:31;8.32;;;3.47;;
73672;SDS011;61972;19.480;-99.240;2022-11-09T05:07:59;4.80;;;3.00;;
73672;SDS011;61972;19.480;-99.240;2022-11-09T05:10:25;6.65;;;3.05;;
73672;SDS011;61972;19.480;-99.240;2022-11-09T05:12:58;8.43;;;2.80;;
73672;SDS011;61972;19.480;-99.240;2022-11-09T05:15:26;9.80;;;2.97;;
73672;SDS011;61972;19.480;-99.240;2022-11-09T05:17:52;5.00;;;2.75;;
73672;SDS011;61972;19.480;-99.240;2022-11-09T05:20:18;6.90;;;2.90;;
73672;SDS011;61972;19.480;-99.240;2022-11-09T05:22:45;5.00;;;2.58;;
73672;SDS011;61972;19.480;-99.240;2022-11-09T05:25:29;5.28;;;2.85;;
73672;SDS011;61972;19.480;-99.240;2022-11-09T05:27:55;5.47;;;2.73;;
73672;SDS011;61972;19.480;-99.240;2022-11-09T05:30:22;4.28;;;2.63;;
73672;SDS011;61972;19.480;-99.240;2022-11-09T05:32:48;4.82;;;2.88;;
73672;SDS011;61972;19.480;-99.240;2022-11-09T05:35:14;5.32;;;2.60;;
73672;SDS011;61972;19.480;-99.240;2022-11-09T05:37:49;3.90;;;2.67;;
73672;SDS011;61972;19.480;-99.240;2022-11-09T05:40:16;3.97;;;2.70;;
73672;SDS011;61972;19.480;-99.240;2022-11-09T05:42:43;6.05;;;2.90;;
73672;SDS011;61972;19.480;-99.240;2022-11-09T05:45:12;4.65;;;2.65;;
73672;SDS011;61972;19.480;-99.240;2022-11-09T05:47:40;3.92;;;2.55;;
73672;SDS011;61972;19.480;-99.240;2022-11-09T05:50:08;4.80;;;2.67;;
73672;SDS011;61972;19.480;-99.240;2022-11-09T05:52:37;7.20;;;2.43;;
73672;SDS011;61972;19.480;-99.240;2022-11-09T05:55:03;4.75;;;2.50;;
73672;SDS011;61972;19.480;-99.240;2022-11-09T05:57:29;5.55;;;2.60;;
73672;SDS011;61972;19.480;-99.240;2022-11-09T05:59:55;5.50;;;2.90;;
73672;SDS011;61972;19.480;-99.240;2022-11-09T06:02:22;4.95;;;2.95;;
73672;SDS011;61972;19.480;-99.240;2022-11-09T06:04:51;3.90;;;2.40;;
73672;SDS011;61972;19.480;-99.240;2022-11-09T06:07:20;4.50;;;2.50;;
73672;SDS011;61972;19.480;-99.240;2022-11-09T06:09:51;3.33;;;1.95;;
73672;SDS011;61972;19.480;-99.240;2022-11-09T06:12:21;4.65;;;2.50;;
73672;SDS011;61972;19.480;-99.240;2022-11-09T06:14:47;5.53;;;2.35;;
73672;SDS011;61972;19.480;-99.240;2022-11-09T06:17:13;4.10;;;2.40;;
73672;SDS011;61972;19.480;-99.240;2022-11-09T06:19:39;5.22;;;2.92;;
73672;SDS011;61972;19.480;-99.240;2022-11-09T06:22:05;3.22;;;2.15;;
73672;SDS011;61972;19.480;-99.240;2022-11-09T06:24:31;3.80;;;2.25;;
73672;SDS011;61972;19.480;-99.240;2022-11-09T06:26:57;4.00;;;2.25;;
73672;SDS011;61972;19.480;-99.240;2022-11-09T06:29:23;5.07;;;2.70;;
73672;SDS011;61972;19.480;-99.240;2022-11-09T06:31:49;3.78;;;2.25;;
73672;SDS011;61972;19.480;-99.240;2022-11-09T06:34:15;4.60;;;2.10;;
73672;SDS011;61972;19.480;-99.240;2022-11-09T06:36:41;4.28;;;2.25;;
73672;SDS011;61972;19.480;-99.240;2022-11-09T06:39:08;3.80;;;2.40;;
73672;SDS011;61972;19.480;-99.240;2022-11-09T06:41:34;3.43;;;2.30;;
73672;SDS011;61972;19.480;-99.240;2022-11-09T06:44:01;3.90;;;2.20;;
73672;SDS011;61972;19.480;-99.240;2022-11-09T06:46:27;4.45;;;2.28;;
73672;SDS011;61972;19.480;-99.240;2022-11-09T06:48:53;3.55;;;2.20;;
73672;SDS011;61972;19.480;-99.240;2022-11-09T06:51:19;5.38;;;2.40;;
73672;SDS011;61972;19.480;-99.240;2022-11-09T06:53:45;3.43;;;2.13;;
73672;SDS011;61972;19.480;-99.240;2022-11-09T06:56:11;4.57;;;2.40;;
73672;SDS011;61972;19.480;-99.240;2022-11-09T06:58:37;5.10;;;2.30;;
73672;SDS011;61972;19.480;-99.240;2022-11-09T07:01:07;6.25;;;2.17;;
73672;SDS011;61972;19.480;-99.240;2022-11-09T07:03:34;3.83;;;1.90;;
73672;SDS011;61972;19.480;-99.240;2022-11-09T07:06:05;3.93;;;2.17;;
73672;SDS011;61972;19.480;-99.240;2022-11-09T07:08:32;3.33;;;2.13;;
73672;SDS011;61972;19.480;-99.240;2022-11-09T07:11:05;3.75;;;2.00;;
73672;SDS011;61972;19.480;-99.240;2022-11-09T07:13:32;3.60;;;2.10;;
73672;SDS011;61972;19.480;-99.240;2022-11-09T07:15:58;4.50;;;2.10;;
73672;SDS011;61972;19.480;-99.240;2022-11-09T07:18:25;3.47;;;2.03;;
73672;SDS011;61972;19.480;-99.240;2022-11-09T07:20:51;4.38;;;2.05;;
73672;SDS011;61972;19.480;-99.240;2022-11-09T07:23:18;4.38;;;1.90;;
73672;SDS011;61972;19.480;-99.240;2022-11-09T07:25:44;3.30;;;2.05;;
73672;SDS011;61972;19.480;-99.240;2022-11-09T07:28:10;3.17;;;1.98;;
73672;SDS011;61972;19.480;-99.240;2022-11-09T07:30:37;3.57;;;1.97;;
73672;SDS011;61972;19.480;-99.240;2022-11-09T07:33:09;3.90;;;2.17;;
73672;SDS011;61972;19.480;-99.240;2022-11-09T07:35:42;2.92;;;1.90;;
73672;SDS011;61972;19.480;-99.240;2022-11-09T07:38:08;3.15;;;2.08;;
73672;SDS011;61972;19.480;-99.240;2022-11-09T07:40:34;3.85;;;2.15;;
73672;SDS011;61972;19.480;-99.240;2022-11-09T07:43:01;3.90;;;2.07;;
73672;SDS011;61972;19.480;-99.240;2022-11-09T07:45:29;3.63;;;2.17;;
73672;SDS011;61972;19.480;-99.240;2022-11-09T07:48:05;3.38;;;2.17;;
73672;SDS011;61972;19.480;-99.240;2022-11-09T07:50:34;3.38;;;1.98;;
73672;SDS011;61972;19.480;-99.240;2022-11-09T07:53:01;3.17;;;1.92;;
73672;SDS011;61972;19.480;-99.240;2022-11-09T07:55:28;3.90;;;2.10;;
73672;SDS011;61972;19.480;-99.240;2022-11-09T07:57:56;3.22;;;1.98;;
73672;SDS011;61972;19.480;-99.240;2022-11-09T08:00:23;4.05;;;2.03;;
73672;SDS011;61972;19.480;-99.240;2022-11-09T08:02:49;2.50;;;1.58;;
73672;SDS011;61972;19.480;-99.240;2022-11-09T08:05:16;3.80;;;2.00;;
73672;SDS011;61972;19.480;-99.240;2022-11-09T08:07:42;4.07;;;2.13;;
73672;SDS011;61972;19.480;-99.240;2022-11-09T08:10:08;3.50;;;1.90;;
73672;SDS011;61972;19.480;-99.240;2022-11-09T08:12:34;5.32;;;2.20;;
73672;SDS011;61972;19.480;-99.240;2022-11-09T08:15:00;3.67;;;1.80;;
73672;SDS011;61972;19.480;-99.240;2022-11-09T08:17:27;8.38;;;3.15;;
73672;SDS011;61972;19.480;-99.240;2022-11-09T08:19:53;5.97;;;2.80;;
73672;SDS011;61972;19.480;-99.240;2022-11-09T08:22:19;7.43;;;3.30;;
73672;SDS011;61972;19.480;-99.240;2022-11-09T08:24:45;10.98;;;3.40;;
73672;SDS011;61972;19.480;-99.240;2022-11-09T08:27:11;5.93;;;3.17;;
73672;SDS011;61972;19.480;-99.240;2022-11-09T08:29:37;7.95;;;3.20;;
73672;SDS011;61972;19.480;-99.240;2022-11-09T08:32:03;5.77;;;3.50;;
73672;SDS011;61972;19.480;-99.240;2022-11-09T08:34:29;6.20;;;3.80;;
73672;SDS011;61972;19.480;-99.240;2022-11-09T08:36:58;8.40;;;3.83;;
73672;SDS011;61972;19.480;-99.240;2022-11-09T08:39:24;7.95;;;3.95;;
73672;SDS011;61972;19.480;-99.240;2022-11-09T08:41:51;6.97;;;3.70;;
73672;SDS011;61972;19.480;-99.240;2022-11-09T08:44:17;6.73;;;3.97;;
73672;SDS011;61972;19.480;-99.240;2022-11-09T08:46:43;6.38;;;3.75;;
73672;SDS011;61972;19.480;-99.240;2022-11-09T08:49:09;6.13;;;3.80;;
73672;SDS011;61972;19.480;-99.240;2022-11-09T08:51:35;7.90;;;3.88;;
73672;SDS011;61972;19.480;-99.240;2022-11-09T08:54:01;8.50;;;4.22;;
73672;SDS011;61972;19.480;-99.240;2022-11-09T08:56:27;6.97;;;4.00;;
73672;SDS011;61972;19.480;-99.240;2022-11-09T08:58:53;7.57;;;4.22;;
73672;SDS011;61972;19.480;-99.240;2022-11-09T09:01:20;8.57;;;4.30;;
73672;SDS011;61972;19.480;-99.240;2022-11-09T09:03:49;7.20;;;4.10;;
73672;SDS011;61972;19.480;-99.240;2022-11-09T09:06:15;7.20;;;4.20;;
73672;SDS011;61972;19.480;-99.240;2022-11-09T09:08:41;7.37;;;4.50;;
73672;SDS011;61972;19.480;-99.240;2022-11-09T09:11:07;7.30;;;4.47;;
73672;SDS011;61972;19.480;-99.240;2022-11-09T09:13:33;6.68;;;4.57;;
73672;SDS011;61972;19.480;-99.240;2022-11-09T09:16:09;7.63;;;4.45;;
73672;SDS011;61972;19.480;-99.240;2022-11-09T09:18:37;6.85;;;4.25;;
73672;SDS011;61972;19.480;-99.240;2022-11-09T09:21:06;7.40;;;4.33;;
73672;SDS011;61972;19.480;-99.240;2022-11-09T09:23:34;8.93;;;4.50;;
73672;SDS011;61972;19.480;-99.240;2022-11-09T09:26:00;6.95;;;4.53;;
73672;SDS011;61972;19.480;-99.240;2022-11-09T09:28:26;9.25;;;4.32;;
73672;SDS011;61972;19.480;-99.240;2022-11-09T09:30:52;7.18;;;4.50;;
73672;SDS011;61972;19.480;-99.240;2022-11-09T09:33:18;7.47;;;4.77;;
73672;SDS011;61972;19.480;-99.240;2022-11-09T09:35:45;7.15;;;4.25;;
73672;SDS011;61972;19.480;-99.240;2022-11-09T09:38:11;6.75;;;4.30;;
73672;SDS011;61972;19.480;-99.240;2022-11-09T09:40:41;7.28;;;4.35;;
73672;SDS011;61972;19.480;-99.240;2022-11-09T09:43:20;7.20;;;4.57;;
73672;SDS011;61972;19.480;-99.240;2022-11-09T09:46:12;6.20;;;4.07;;
73672;SDS011;61972;19.480;-99.240;2022-11-09T09:48:42;7.57;;;4.60;;
73672;SDS011;61972;19.480;-99.240;2022-11-09T09:51:16;6.60;;;4.35;;
73672;SDS011;61972;19.480;-99.240;2022-11-09T09:54:06;8.27;;;4.90;;
73672;SDS011;61972;19.480;-99.240;2022-11-09T09:56:37;8.68;;;4.80;;
73672;SDS011;61972;19.480;-99.240;2022-11-09T09:59:10;7.83;;;4.50;;
73672;SDS011;61972;19.480;-99.240;2022-11-09T10:01:41;7.40;;;4.60;;
73672;SDS011;61972;19.480;-99.240;2022-11-09T10:04:54;7.75;;;4.60;;
73672;SDS011;61972;19.480;-99.240;2022-11-09T10:20:44;7.28;;;4.10;;
73672;SDS011;61972;19.480;-99.240;2022-11-09T10:24:17;7.85;;;4.10;;
73672;SDS011;61972;19.480;-99.240;2022-11-09T10:26:46;7.03;;;4.60;;
73672;SDS011;61972;19.480;-99.240;2022-11-09T10:29:21;7.65;;;4.72;;
73672;SDS011;61972;19.480;-99.240;2022-11-09T10:31:57;8.63;;;4.30;;
73672;SDS011;61972;19.480;-99.240;2022-11-09T10:34:48;12.73;;;4.57;;
73672;SDS011;61972;19.480;-99.240;2022-11-09T10:37:33;6.80;;;4.57;;
73672;SDS011;61972;19.480;-99.240;2022-11-09T10:40:07;7.23;;;4.40;;
73672;SDS011;61972;19.480;-99.240;2022-11-09T10:42:50;7.30;;;4.18;;
73672;SDS011;61972;19.480;-99.240;2022-11-09T10:45:30;7.18;;;4.05;;
73672;SDS011;61972;19.480;-99.240;2022-11-09T10:47:58;7.40;;;5.00;;
73672;SDS011;61972;19.480;-99.240;2022-11-09T10:53:21;7.03;;;4.47;;
73672;SDS011;61972;19.480;-99.240;2022-11-09T10:58:26;7.10;;;4.22;;
73672;SDS011;61972;19.480;-99.240;2022-11-09T11:01:05;6.78;;;4.05;;
73672;SDS011;61972;19.480;-99.240;2022-11-09T11:03:36;7.05;;;3.92;;
73672;SDS011;61972;19.480;-99.240;2022-11-09T11:06:17;7.10;;;4.63;;
73672;SDS011;61972;19.480;-99.240;2022-11-09T11:13:50;7.15;;;4.40;;
73672;SDS011;61972;19.480;-99.240;2022-11-09T11:16:33;8.38;;;4.03;;
73672;SDS011;61972;19.480;-99.240;2022-11-09T11:19:01;7.20;;;3.93;;
73672;SDS011;61972;19.480;-99.240;2022-11-09T11:21:28;7.78;;;4.50;;
73672;SDS011;61972;19.480;-99.240;2022-11-09T11:27:15;7.32;;;3.90;;
73672;SDS011;61972;19.480;-99.240;2022-11-09T11:29:45;6.85;;;4.10;;
73672;SDS011;61972;19.480;-99.240;2022-11-09T11:32:14;6.83;;;4.30;;
73672;SDS011;61972;19.480;-99.240;2022-11-09T11:34:43;6.75;;;4.60;;
73672;SDS011;61972;19.480;-99.240;2022-11-09T11:45:01;7.90;;;4.37;;
73672;SDS011;61972;19.480;-99.240;2022-11-09T11:50:44;7.32;;;4.13;;
73672;SDS011;61972;19.480;-99.240;2022-11-09T11:53:20;6.57;;;3.83;;
73672;SDS011;61972;19.480;-99.240;2022-11-09T11:55:54;7.43;;;3.72;;
73672;SDS011;61972;19.480;-99.240;2022-11-09T12:07:58;6.32;;;3.58;;
73672;SDS011;61972;19.480;-99.240;2022-11-09T12:12:59;8.30;;;4.03;;
73672;SDS011;61972;19.480;-99.240;2022-11-09T12:21:33;7.03;;;3.65;;
73672;SDS011;61972;19.480;-99.240;2022-11-09T12:29:23;6.28;;;3.72;;
73672;SDS011;61972;19.480;-99.240;2022-11-09T12:40:39;7.20;;;3.63;;
73672;SDS011;61972;19.480;-99.240;2022-11-09T12:45:41;6.32;;;4.13;;
73672;SDS011;61972;19.480;-99.240;2022-11-09T12:48:13;7.05;;;3.53;;
73672;SDS011;61972;19.480;-99.240;2022-11-09T12:50:49;7.43;;;3.78;;
73672;SDS011;61972;19.480;-99.240;2022-11-09T12:53:16;7.83;;;4.07;;
73672;SDS011;61972;19.480;-99.240;2022-11-09T12:55:56;7.10;;;3.90;;
73672;SDS011;61972;19.480;-99.240;2022-11-09T12:58:33;9.90;;;3.30;;
73672;SDS011;61972;19.480;-99.240;2022-11-09T13:01:01;6.55;;;3.60;;
73672;SDS011;61972;19.480;-99.240;2022-11-09T13:03:31;8.27;;;3.90;;
73672;SDS011;61972;19.480;-99.240;2022-11-09T13:09:04;6.85;;;3.75;;
73672;SDS011;61972;19.480;-99.240;2022-11-09T13:11:44;7.30;;;3.22;;
73672;SDS011;61972;19.480;-99.240;2022-11-09T13:16:50;7.63;;;3.80;;
73672;SDS011;61972;19.480;-99.240;2022-11-09T13:24:51;7.13;;;3.65;;
73672;SDS011;61972;19.480;-99.240;2022-11-09T13:29:58;7.57;;;3.72;;
73672;SDS011;61972;19.480;-99.240;2022-11-09T13:32:26;8.60;;;3.30;;
73672;SDS011;61972;19.480;-99.240;2022-11-09T13:34:58;7.10;;;3.80;;
73672;SDS011;61972;19.480;-99.240;2022-11-09T13:43:03;7.22;;;3.50;;
73672;SDS011;61972;19.480;-99.240;2022-11-09T13:51:13;7.55;;;3.60;;
73672;SDS011;61972;19.480;-99.240;2022-11-09T13:53:49;6.60;;;3.60;;
73672;SDS011;61972;19.480;-99.240;2022-11-09T13:56:42;7.05;;;3.63;;
73672;SDS011;61972;19.480;-99.240;2022-11-09T14:01:47;7.05;;;3.85;;
73672;SDS011;61972;19.480;-99.240;2022-11-09T14:06:53;5.95;;;3.60;;
73672;SDS011;61972;19.480;-99.240;2022-11-09T14:09:23;6.85;;;3.92;;
73672;SDS011;61972;19.480;-99.240;2022-11-09T14:12:16;7.83;;;3.70;;
73672;SDS011;61972;19.480;-99.240;2022-11-09T14:23:29;8.73;;;3.50;;
73672;SDS011;61972;19.480;-99.240;2022-11-09T14:25:56;8.90;;;3.70;;
73672;SDS011;61972;19.480;-99.240;2022-11-09T14:28:26;7.45;;;3.95;;
73672;SDS011;61972;19.480;-99.240;2022-11-09T14:30:54;7.95;;;4.18;;
73672;SDS011;61972;19.480;-99.240;2022-11-09T14:33:25;6.70;;;4.03;;
73672;SDS011;61972;19.480;-99.240;2022-11-09T14:35:53;7.82;;;4.50;;
73672;SDS011;61972;19.480;-99.240;2022-11-09T14:38:23;7.17;;;4.50;;
73672;SDS011;61972;19.480;-99.240;2022-11-09T14:41:20;7.00;;;4.13;;
73672;SDS011;61972;19.480;-99.240;2022-11-09T14:43:49;8.68;;;4.22;;
73672;SDS011;61972;19.480;-99.240;2022-11-09T14:46:27;8.00;;;4.20;;
73672;SDS011;61972;19.480;-99.240;2022-11-09T14:48:56;8.02;;;4.43;;
73672;SDS011;61972;19.480;-99.240;2022-11-09T14:51:34;7.27;;;4.20;;
73672;SDS011;61972;19.480;-99.240;2022-11-09T14:54:06;12.32;;;5.75;;
73672;SDS011;61972;19.480;-99.240;2022-11-09T14:56:36;15.43;;;7.47;;
73672;SDS011;61972;19.480;-99.240;2022-11-09T14:59:04;17.05;;;9.45;;
73672;SDS011;61972;19.480;-99.240;2022-11-09T15:01:32;14.30;;;9.80;;
73672;SDS011;61972;19.480;-99.240;2022-11-09T15:06:48;16.00;;;9.85;;
73672;SDS011;61972;19.480;-99.240;2022-11-09T15:09:20;15.60;;;9.82;;
73672;SDS011;61972;19.480;-99.240;2022-11-09T15:11:50;16.43;;;8.63;;
73672;SDS011;61972;19.480;-99.240;2022-11-09T15:16:51;16.40;;;8.48;;
73672;SDS011;61972;19.480;-99.240;2022-11-09T15:19:26;12.00;;;7.38;;
73672;SDS011;61972;19.480;-99.240;2022-11-09T15:21:58;12.93;;;8.05;;
73672;SDS011;61972;19.480;-99.240;2022-11-09T15:24:28;11.83;;;6.90;;
73672;SDS011;61972;19.480;-99.240;2022-11-09T15:27:27;12.25;;;6.70;;
73672;SDS011;61972;19.480;-99.240;2022-11-09T15:29:55;13.63;;;6.80;;
73672;SDS011;61972;19.480;-99.240;2022-11-09T15:32:24;11.82;;;6.35;;
73672;SDS011;61972;19.480;-99.240;2022-11-09T15:34:55;13.00;;;5.78;;
73672;SDS011;61972;19.480;-99.240;2022-11-09T15:40:12;12.60;;;5.20;;
73672;SDS011;61972;19.480;-99.240;2022-11-09T15:42:44;8.40;;;5.15;;
73672;SDS011;61972;19.480;-99.240;2022-11-09T15:45:14;7.90;;;4.53;;
73672;SDS011;61972;19.480;-99.240;2022-11-09T15:47:50;8.32;;;4.15;;
73672;SDS011;61972;19.480;-99.240;2022-11-09T15:50:19;9.67;;;4.20;;
73672;SDS011;61972;19.480;-99.240;2022-11-09T15:52:50;7.70;;;4.20;;
73672;SDS011;61972;19.480;-99.240;2022-11-09T15:55:18;6.97;;;4.20;;
73672;SDS011;61972;19.480;-99.240;2022-11-09T15:57:47;6.93;;;3.40;;
73672;SDS011;61972;19.480;-99.240;2022-11-09T16:00:14;7.30;;;3.95;;
73672;SDS011;61972;19.480;-99.240;2022-11-09T16:02:42;6.20;;;3.50;;
73672;SDS011;61972;19.480;-99.240;2022-11-09T16:05:10;5.68;;;3.60;;
73672;SDS011;61972;19.480;-99.240;2022-11-09T16:07:36;7.03;;;3.33;;
73672;SDS011;61972;19.480;-99.240;2022-11-09T16:10:14;5.18;;;3.20;;
73672;SDS011;61972;19.480;-99.240;2022-11-09T16:12:40;6.15;;;3.60;;
73672;SDS011;61972;19.480;-99.240;2022-11-09T16:15:07;9.27;;;3.17;;
73672;SDS011;61972;19.480;-99.240;2022-11-09T16:17:33;7.03;;;3.60;;
73672;SDS011;61972;19.480;-99.240;2022-11-09T16:19:59;5.50;;;3.35;;
73672;SDS011;61972;19.480;-99.240;2022-11-09T16:22:29;6.25;;;3.60;;
73672;SDS011;61972;19.480;-99.240;2022-11-09T16:24:57;7.28;;;3.42;;
73672;SDS011;61972;19.480;-99.240;2022-11-09T16:27:24;5.83;;;3.40;;
73672;SDS011;61972;19.480;-99.240;2022-11-09T16:29:50;6.43;;;3.40;;
73672;SDS011;61972;19.480;-99.240;2022-11-09T16:32:17;5.95;;;3.35;;
73672;SDS011;61972;19.480;-99.240;2022-11-09T16:34:44;7.90;;;3.35;;